BVLO2: Caney River, Bartlesville, OK

                                SHEF ID:       BVLO2     Caney River above Coon Creek at
STATION TYPE:
Regulating: Stage = 13.00, Flow = 14009

PRECIP STAGE STAGE(2) RIV-FLOW BAT-LOAD
in ft ft cfs volt
Ccp-Rev Ccp-Rev Ccp-Rev Ccp-Rev Ccp-Rev
(America/Chicago)
04/24 00:00 0.00 4.96 ---- 1970 12.73
04/24 01:00 0.00 4.89 ---- 1863 12.65
04/24 02:00 0.00 4.83 ---- 1770 ----
04/24 03:00 0.00 4.79 ---- 1708 12.65
04/24 04:00 0.00 4.77 ---- 1677 12.65
04/24 05:00 0.00 4.75 ---- 1646 12.65
04/24 06:00 0.00 4.74 ---- 1630 12.57
04/24 07:00 0.00 4.73 ---- 1615 12.57
04/24 08:00 0.00 4.72 ---- 1599 12.57
04/24 09:00 0.00 4.72 ---- 1599 12.57
04/24 10:00 0.00 4.70 ---- 1569 13.05
04/24 11:00 0.00 4.69 ---- 1554 13.37
04/24 12:00 0.00 4.68 ---- 1538 13.37
04/24 13:00 0.00 4.67 ---- 1523 13.60
04/24 14:00 0.00 4.67 ---- 1523 13.44
04/24 15:00 0.00 4.65 ---- 1493 13.44
04/24 16:00 0.00 4.64 ---- 1478 13.29
04/24 17:00 0.00 4.63 ---- 1463 13.29
04/24 18:00 0.00 4.61 ---- 1434 13.29
04/24 19:00 0.00 4.60 ---- 1419 13.29
04/24 20:00 0.00 4.57 ---- 1373 13.21
04/24 21:00 0.00 4.55 ---- 1343 12.89
04/24 22:00 0.00 4.52 ---- 1298 12.73
04/24 23:00 ---- ---- ---- ---- ----
Data processed at Sat 25Apr2026 04:14 GMT

NOTICE: If you are parsing this page

Please convert to using our Data API. Starting early 2026 we will be migrating to: https://water.usace.army.mil with modern pages rendered in JavaScript. When this migration completes you will no longer be able to scrape this page! CWMSDataAPI (CDA)

Timeseries IDs (TSIDs)

TSIDs used from left to right in the data table
BART.Precip-Inc.Total.1Hour.1Hour.Ccp-Rev
BART.Stage.Inst.1Hour.0.Ccp-Rev
BART.Stage-Alt.Inst.1Hour.0.Ccp-Rev
BART.Flow.Inst.1Hour.0.Ccp-Rev
BART.Volt-Battery Load.Inst.1Hour.0.Ccp-Rev

                            

All information presented herein is the property of the government of the United States of America and may be revised or deleted at any time without prior notice. Dissemination of this information without the expressed written consent of the Public Affairs Office, Tulsa District U.S. Army Corps of Engineers is strictly prohibited. These data are gathered electronically and, as presented, have NOT undergone any form of quality control. These data are NOT guaranteed to be valid or correct.